createdAt,value
2022-08-11T00:00:09.298Z,2.50
2022-08-11T00:05:12.687Z,2.63
2022-08-11T00:10:07.552Z,2.35
2022-08-11T00:15:01.984Z,2.50
2022-08-11T00:20:12.051Z,2.20
2022-08-11T00:25:21.679Z,2.50
2022-08-11T00:30:15.468Z,2.10
2022-08-11T00:35:55.750Z,2.47
2022-08-11T00:40:44.940Z,2.40
2022-08-11T00:45:45.710Z,2.00
2022-08-11T00:50:57.173Z,2.70
2022-08-11T00:56:16.705Z,2.30
2022-08-11T01:01:10.873Z,2.90
2022-08-11T01:06:23.245Z,2.60
2022-08-11T01:11:55.153Z,3.00
2022-08-11T01:17:08.915Z,3.05
2022-08-11T01:22:29.780Z,2.53
2022-08-11T01:27:40.455Z,3.25
2022-08-11T01:33:27.448Z,2.80
2022-08-11T01:38:28.343Z,2.40
2022-08-11T01:43:58.488Z,2.75
2022-08-11T01:50:06.742Z,2.80
2022-08-11T01:54:33.477Z,2.70
2022-08-11T01:59:36.687Z,2.65
2022-08-11T02:05:04.403Z,2.90
2022-08-11T02:10:35.577Z,2.67
2022-08-11T02:15:47.451Z,2.60
2022-08-11T02:21:10.906Z,2.65
2022-08-11T02:26:09.086Z,2.83
2022-08-11T02:32:15.645Z,2.38
2022-08-11T02:36:58.718Z,2.45
2022-08-11T02:42:32.488Z,2.78
2022-08-11T02:47:40.514Z,2.67
2022-08-11T02:53:08.248Z,2.78
2022-08-11T02:58:12.085Z,2.22
2022-08-11T03:03:05.871Z,2.80
2022-08-11T03:08:07.548Z,2.67
2022-08-11T03:13:42.046Z,2.90
2022-08-11T03:18:56.581Z,3.80
2022-08-11T03:23:48.819Z,4.72
2022-08-11T03:29:06.000Z,5.20
2022-08-11T03:34:09.133Z,4.63
2022-08-11T03:39:04.695Z,4.55
2022-08-11T03:44:15.871Z,5.30
2022-08-11T03:49:22.521Z,4.93
2022-08-11T03:54:26.288Z,5.40
2022-08-11T03:59:33.972Z,5.10
2022-08-11T04:04:51.712Z,4.85
2022-08-11T04:10:05.479Z,4.53
2022-08-11T04:15:41.752Z,4.50
2022-08-11T04:20:55.959Z,4.18
2022-08-11T04:26:22.554Z,3.88
2022-08-11T04:31:44.068Z,4.28
2022-08-11T04:37:34.872Z,3.60
2022-08-11T04:43:11.000Z,4.85
2022-08-11T04:48:41.240Z,3.85
2022-08-11T04:54:14.165Z,4.15
2022-08-11T04:59:49.914Z,4.72
2022-08-11T05:05:13.300Z,4.30
2022-08-11T05:10:24.723Z,4.10
2022-08-11T05:15:42.763Z,3.80
2022-08-11T05:21:04.991Z,3.63
2022-08-11T05:26:46.773Z,4.00
2022-08-11T05:32:35.572Z,3.10
2022-08-11T05:37:33.394Z,3.67
2022-08-11T05:43:08.196Z,3.50
2022-08-11T05:48:39.809Z,3.30
2022-08-11T05:53:52.108Z,3.33
2022-08-11T05:58:47.866Z,3.47
2022-08-11T06:04:03.396Z,3.08
2022-08-11T06:08:58.688Z,3.20
2022-08-11T06:13:53.272Z,3.13
2022-08-11T06:18:48.950Z,2.95
2022-08-11T06:23:43.729Z,3.22
2022-08-11T06:28:41.726Z,3.03
2022-08-11T06:33:44.315Z,3.22
2022-08-11T06:38:55.175Z,3.30
2022-08-11T06:43:55.994Z,3.40
2022-08-11T06:48:50.550Z,2.63
2022-08-11T06:54:03.425Z,2.83
2022-08-11T06:59:18.481Z,3.00
2022-08-11T07:04:12.702Z,2.40
2022-08-11T07:09:42.328Z,2.53
2022-08-11T07:14:54.197Z,2.58
2022-08-11T07:20:19.216Z,2.55
2022-08-11T07:25:34.998Z,3.25
2022-08-11T07:30:28.339Z,2.90
2022-08-11T07:35:25.129Z,3.40
2022-08-11T07:40:23.424Z,2.65
2022-08-11T07:45:35.259Z,2.53
2022-08-11T07:50:47.073Z,3.58
2022-08-11T07:55:49.173Z,2.22
2022-08-11T08:01:16.052Z,2.45
2022-08-11T08:06:36.715Z,2.22
2022-08-11T08:11:48.159Z,2.45
2022-08-11T08:17:00.019Z,1.90
2022-08-11T08:21:53.235Z,1.85
2022-08-11T08:27:01.567Z,1.80
2022-08-11T08:31:55.648Z,2.60
2022-08-11T08:36:49.653Z,1.70
2022-08-11T08:41:44.501Z,1.95
2022-08-11T08:46:45.141Z,2.15
2022-08-11T08:51:58.536Z,1.70
2022-08-11T08:56:56.792Z,1.67
2022-08-11T09:01:55.900Z,1.88
2022-08-11T09:06:48.885Z,2.03
2022-08-11T09:16:44.668Z,4.15
2022-08-11T09:21:49.156Z,3.00
2022-08-11T09:27:01.429Z,1.60
2022-08-11T09:31:54.209Z,1.67
2022-08-11T09:37:05.593Z,1.60
2022-08-11T09:42:03.324Z,1.90
2022-08-11T09:47:00.837Z,1.70
2022-08-11T09:52:05.465Z,1.55
2022-08-11T09:57:18.136Z,1.88
2022-08-11T10:02:11.851Z,1.60
2022-08-11T10:07:06.982Z,1.30
2022-08-11T10:12:00.983Z,1.20
2022-08-11T10:16:54.679Z,1.77
2022-08-11T10:22:13.812Z,1.98
2022-08-11T10:27:07.124Z,1.20
2022-08-11T10:32:19.946Z,1.50
2022-08-11T10:37:19.918Z,1.90
2022-08-11T10:42:55.383Z,2.53
2022-08-11T10:47:49.058Z,1.40
2022-08-11T10:53:00.987Z,1.65
2022-08-11T10:58:13.272Z,1.50
2022-08-11T11:03:22.670Z,1.48
2022-08-11T11:08:39.665Z,1.73
2022-08-11T11:19:00.677Z,1.35
2022-08-11T11:24:19.254Z,1.00
2022-08-11T11:30:09.181Z,1.48
2022-08-11T11:35:18.173Z,1.15
2022-08-11T11:40:22.565Z,1.23
2022-08-11T11:45:26.011Z,1.75
2022-08-11T11:50:25.774Z,1.13
2022-08-11T12:00:42.959Z,1.33
2022-08-11T12:05:37.077Z,1.00
2022-08-11T12:10:31.092Z,1.00
2022-08-11T12:16:03.472Z,0.95
2022-08-11T12:20:39.668Z,0.90
2022-08-11T12:26:09.998Z,1.13
2022-08-11T12:31:05.587Z,1.20
2022-08-11T12:36:01.374Z,1.30
2022-08-11T12:46:34.267Z,1.33
2022-08-11T12:52:13.650Z,1.35
2022-08-11T12:57:56.118Z,1.33
2022-08-11T13:03:08.600Z,1.08
2022-08-11T13:08:02.353Z,1.15
2022-08-11T13:13:26.857Z,1.08
2022-08-11T13:18:27.710Z,0.88
2022-08-11T13:23:20.761Z,1.30
2022-08-11T13:28:13.875Z,0.90
2022-08-11T13:33:11.305Z,1.10
2022-08-11T13:38:19.810Z,0.80
2022-08-11T13:43:14.839Z,1.05
2022-08-11T13:48:12.662Z,0.83
2022-08-11T13:53:06.816Z,0.98
2022-08-11T13:58:07.242Z,1.13
2022-08-11T14:03:13.389Z,0.90
2022-08-11T14:08:33.502Z,1.20
2022-08-11T14:13:45.243Z,1.33
2022-08-11T14:18:50.998Z,1.17
2022-08-11T14:23:50.735Z,1.20
2022-08-11T14:28:45.309Z,0.90
2022-08-11T14:34:00.913Z,1.30
2022-08-11T14:38:52.055Z,0.95
2022-08-11T14:44:13.524Z,1.00
2022-08-11T14:49:08.435Z,1.10
2022-08-11T14:54:21.183Z,1.20
2022-08-11T14:59:14.172Z,1.38
2022-08-11T15:04:34.303Z,1.52
2022-08-11T15:09:20.673Z,1.25
2022-08-11T15:14:15.256Z,1.38
2022-08-11T15:19:09.653Z,1.00
2022-08-11T15:24:20.860Z,1.50
2022-08-11T15:29:35.097Z,1.27
2022-08-11T15:34:47.712Z,1.40
2022-08-11T15:40:31.434Z,1.67
2022-08-11T15:45:45.529Z,1.40
2022-08-11T15:50:41.235Z,1.63
2022-08-11T15:55:37.143Z,1.20
2022-08-11T16:00:58.705Z,1.30
2022-08-11T16:05:57.973Z,1.30
2022-08-11T16:10:52.265Z,1.33
2022-08-11T16:16:08.084Z,1.27
2022-08-11T16:21:03.029Z,1.45
2022-08-11T16:27:01.508Z,1.35
2022-08-11T16:31:11.451Z,2.05
2022-08-11T16:36:23.522Z,1.52
2022-08-11T16:41:38.013Z,1.40
2022-08-11T16:46:50.581Z,1.70
2022-08-11T16:51:43.960Z,1.42
2022-08-11T16:56:51.448Z,1.70
2022-08-11T17:02:05.312Z,1.55
2022-08-11T17:07:23.424Z,1.60
2022-08-11T17:12:48.283Z,1.80
2022-08-11T17:17:42.516Z,1.88
2022-08-11T17:22:55.532Z,2.25
2022-08-11T17:27:49.552Z,1.63
2022-08-11T17:33:04.618Z,2.13
2022-08-11T17:38:13.494Z,1.50
2022-08-11T17:43:28.581Z,1.58
2022-08-11T17:48:26.994Z,1.38
2022-08-11T17:53:38.583Z,1.50
2022-08-11T17:58:51.197Z,1.35
2022-08-11T18:03:56.392Z,2.30
2022-08-11T18:09:10.029Z,2.08
2022-08-11T18:14:27.392Z,1.80
2022-08-11T18:19:39.447Z,1.38
2022-08-11T18:24:58.038Z,1.75
2022-08-11T18:30:11.064Z,1.90
2022-08-11T18:35:25.781Z,1.73
2022-08-11T18:40:41.174Z,1.42
2022-08-11T18:46:06.578Z,1.75
2022-08-11T18:51:31.265Z,2.38
2022-08-11T18:56:49.334Z,1.70
2022-08-11T19:02:01.627Z,1.60
2022-08-11T19:07:20.168Z,2.10
2022-08-11T19:12:32.212Z,1.30
2022-08-11T19:17:45.887Z,1.85
2022-08-11T19:22:58.454Z,1.77
2022-08-11T19:28:10.231Z,1.88
2022-08-11T19:33:57.337Z,2.08
2022-08-11T19:38:53.437Z,1.98
2022-08-11T19:44:07.247Z,1.83
2022-08-11T19:49:19.351Z,1.40
2022-08-11T19:54:31.850Z,2.50
2022-08-11T19:59:43.425Z,1.65
2022-08-11T20:04:54.678Z,2.22
2022-08-11T20:10:07.736Z,1.90
2022-08-11T20:15:19.924Z,1.60
2022-08-11T20:20:33.173Z,1.92
2022-08-11T20:25:47.344Z,1.88
2022-08-11T20:30:58.939Z,2.03
2022-08-11T20:36:11.093Z,2.00
2022-08-11T20:41:22.329Z,1.95
2022-08-11T20:46:35.605Z,2.05
2022-08-11T20:51:47.667Z,2.13
2022-08-11T20:57:05.076Z,2.25
2022-08-11T21:02:24.835Z,2.28
2022-08-11T21:07:39.311Z,2.10
2022-08-11T21:12:55.530Z,2.00
2022-08-11T21:18:07.876Z,2.53
2022-08-11T21:23:24.200Z,2.70
2022-08-11T21:28:39.092Z,2.70
2022-08-11T21:33:50.752Z,2.67
2022-08-11T21:39:03.520Z,2.53
2022-08-11T21:44:15.526Z,2.30
2022-08-11T21:49:29.261Z,2.15
2022-08-11T21:54:40.950Z,2.20
2022-08-11T22:00:00.733Z,2.60
2022-08-11T22:05:13.310Z,2.38
2022-08-11T22:10:40.243Z,2.53
2022-08-11T22:16:16.957Z,2.00
2022-08-11T22:22:01.028Z,2.80
2022-08-11T22:27:01.692Z,1.95
2022-08-11T22:32:13.787Z,1.90
2022-08-11T22:37:26.941Z,2.30
2022-08-11T22:42:39.128Z,2.08
2022-08-11T22:47:50.774Z,1.98
2022-08-11T22:53:03.115Z,2.40
2022-08-11T22:58:15.001Z,1.70
2022-08-11T23:03:38.235Z,2.00
2022-08-11T23:08:53.527Z,1.95
2022-08-11T23:14:11.015Z,1.88
2022-08-11T23:20:04.714Z,2.00
2022-08-11T23:25:01.061Z,2.30
2022-08-11T23:30:19.202Z,2.50
2022-08-11T23:35:54.937Z,3.00
2022-08-11T23:41:16.066Z,3.85
2022-08-11T23:46:32.888Z,3.57
2022-08-11T23:51:48.133Z,3.60
2022-08-11T23:57:05.360Z,3.05
